KBJJ/BJJ METAR and TAF weather

Enter ICAO airport designator
Station Type Date Time Source
KBJJ METAR 2021/01/27 13:56 UTC NOAA

KBJJ 271356Z AUTO 35008KT 8SM -SN OVC012 M03/M04 A3022 RMK AO2 SNB54 SLP246 P0000 T10281044


Station Type Date Time Source
KBJJ Decoded METAR 2021/01/27 13:56 UTC NOAA

WOOSTER WAYNE COUNTY AIRPORT, OH, United States (KBJJ) 40-52N 81-53W 343M
Jan 27, 2021 - 08:56 AM EST / 2021.01.27 1356 UTC
Wind: from the N (350 degrees) at 9 MPH (8 KT):0
Visibility: 8 mile(s):0
Sky conditions: overcast
Weather: light snow
Precipitation last hour: A trace
Temperature: 27.0 F (-2.8 C)
Windchill: 17 F (-8 C):1
Dew Point: 24.1 F (-4.4 C)
Relative Humidity: 88%
Pressure (altimeter): 30.22 in. Hg (1023 hPa)
ob: KBJJ 271356Z AUTO 35008KT 8SM -SN OVC012 M03/M04 A3022 RMK AO2 SNB54 SLP246 P0000 T10281044
cycle: 14

Station Type Date Time Source
KBJJ TAF UTC NOAA

Error!

Example: see airport list